Ana Sayfa
METAR-TAF:

METAR-TAF

Havaalanları :

Salak

Maroua, Kamerun

Enlem: 10-27N, Boylam: 014-15E, yükseklik: 423 m

METAR: eksik

Saat: 22:56 (21:56 UTC)

Tahmin

Rapor saat 05:00 UTC de 16 saat ve 56 dakika önce yapıldı.
Ayın 16'si saat 06 UTC'den ayın 16'si saat 18 UTC'ye kadar geçerli Tahmin
Rüzgar güney/güneybatıdan 10 kt
Görüş mesafesi 10 km veya daha fazla
3000 ft yükseklikte az bulutlu
Olasılık 30%
ayın 16'si saat 14 UTC'den ayın 16'si saat 18 UTC'ye kadar
Görüş mesafesi: 3000 m
2000 ft yükseklikte az bulutlu
2500 ft yükseklikte az bulutlu, Kümülonimbus.
gök gürültülü fırtına, yağmur,

TAF: FKKL 160500Z 1606/1618 21010KT 9999 FEW030 PROB30 1614/1618 3000 TSRA FEW020 FEW025CB

4.000'den fazla havaalanı için hava durumu gözlemleri ve tahminleri (METAR ve TAF raporları).

Kullanılabilir istasyonlar harita üzerinde sarı ve kırmızı noktalarla gösterilir.

İstasyonun adını görmek için fareyi noktanın üzerinde gezdirin.

Sonrasında hava gözlem ve tahminlerini görmek için tıklayın.

Haritayı değiştirmek için: yaklaştırmak için siyah artı işaretli yeşil düğmeye ve uzaklaştırmak için de eksi işaretli düğmeye hızla tıklayın; bitişik haritalar için yeşil okları kullanın.


METAR-TAF: